sensor_id;sensor_type;location;lat;lon;timestamp;temperature;humidity
3172;DHT22;1597;51.572;6.992;2022-07-17T00:01:40;17.50;5.30
3172;DHT22;1597;51.572;6.992;2022-07-17T00:04:06;17.50;5.10
3172;DHT22;1597;51.572;6.992;2022-07-17T00:06:31;17.50;5.40
3172;DHT22;1597;51.572;6.992;2022-07-17T00:08:57;17.60;5.50
3172;DHT22;1597;51.572;6.992;2022-07-17T00:11:23;17.60;3.50
3172;DHT22;1597;51.572;6.992;2022-07-17T00:13:49;17.60;4.00
3172;DHT22;1597;51.572;6.992;2022-07-17T00:16:14;17.60;4.10
3172;DHT22;1597;51.572;6.992;2022-07-17T00:18:40;17.60;3.40
3172;DHT22;1597;51.572;6.992;2022-07-17T00:21:06;17.60;4.30
3172;DHT22;1597;51.572;6.992;2022-07-17T00:23:32;17.60;4.70
3172;DHT22;1597;51.572;6.992;2022-07-17T00:25:58;17.60;4.40
3172;DHT22;1597;51.572;6.992;2022-07-17T00:28:24;17.60;4.30
3172;DHT22;1597;51.572;6.992;2022-07-17T00:30:50;17.60;4.10
3172;DHT22;1597;51.572;6.992;2022-07-17T00:33:16;17.60;3.00
3172;DHT22;1597;51.572;6.992;2022-07-17T00:35:42;17.60;3.30
3172;DHT22;1597;51.572;6.992;2022-07-17T00:38:08;17.50;3.10
3172;DHT22;1597;51.572;6.992;2022-07-17T00:40:35;17.50;3.50
3172;DHT22;1597;51.572;6.992;2022-07-17T00:43:01;17.50;4.00
3172;DHT22;1597;51.572;6.992;2022-07-17T00:45:27;17.40;4.30
3172;DHT22;1597;51.572;6.992;2022-07-17T00:48:00;17.40;3.90
3172;DHT22;1597;51.572;6.992;2022-07-17T00:50:37;17.40;5.60
3172;DHT22;1597;51.572;6.992;2022-07-17T00:53:07;17.30;6.70
3172;DHT22;1597;51.572;6.992;2022-07-17T00:55:33;17.30;7.70
3172;DHT22;1597;51.572;6.992;2022-07-17T00:58:03;17.20;8.40
3172;DHT22;1597;51.572;6.992;2022-07-17T01:00:30;17.20;8.20
3172;DHT22;1597;51.572;6.992;2022-07-17T01:02:57;17.10;9.40
3172;DHT22;1597;51.572;6.992;2022-07-17T01:05:23;17.10;10.30
3172;DHT22;1597;51.572;6.992;2022-07-17T01:07:50;17.10;10.30
3172;DHT22;1597;51.572;6.992;2022-07-17T01:10:19;17.10;11.70
3172;DHT22;1597;51.572;6.992;2022-07-17T01:12:47;17.00;13.80
3172;DHT22;1597;51.572;6.992;2022-07-17T01:15:15;16.90;14.00
3172;DHT22;1597;51.572;6.992;2022-07-17T01:17:42;16.90;15.50
3172;DHT22;1597;51.572;6.992;2022-07-17T01:20:09;16.90;15.50
3172;DHT22;1597;51.572;6.992;2022-07-17T01:22:43;16.90;16.80
3172;DHT22;1597;51.572;6.992;2022-07-17T01:25:11;16.90;15.30
3172;DHT22;1597;51.572;6.992;2022-07-17T01:27:38;16.90;17.50
3172;DHT22;1597;51.572;6.992;2022-07-17T01:30:05;16.90;18.20
3172;DHT22;1597;51.572;6.992;2022-07-17T01:32:36;16.80;18.80
3172;DHT22;1597;51.572;6.992;2022-07-17T01:35:04;16.90;17.30
3172;DHT22;1597;51.572;6.992;2022-07-17T01:37:31;16.90;16.80
3172;DHT22;1597;51.572;6.992;2022-07-17T01:39:57;16.80;17.60
3172;DHT22;1597;51.572;6.992;2022-07-17T01:42:24;16.80;18.50
3172;DHT22;1597;51.572;6.992;2022-07-17T01:44:51;16.70;19.70
3172;DHT22;1597;51.572;6.992;2022-07-17T01:47:19;16.70;21.30
3172;DHT22;1597;51.572;6.992;2022-07-17T01:49:48;16.70;21.10
3172;DHT22;1597;51.572;6.992;2022-07-17T01:52:16;16.70;21.90
3172;DHT22;1597;51.572;6.992;2022-07-17T01:54:43;16.60;20.60
3172;DHT22;1597;51.572;6.992;2022-07-17T01:57:10;16.60;22.70
3172;DHT22;1597;51.572;6.992;2022-07-17T01:59:37;16.60;23.90
3172;DHT22;1597;51.572;6.992;2022-07-17T02:02:04;16.60;24.90
3172;DHT22;1597;51.572;6.992;2022-07-17T02:04:36;16.50;25.40
3172;DHT22;1597;51.572;6.992;2022-07-17T02:07:03;16.40;24.40
3172;DHT22;1597;51.572;6.992;2022-07-17T02:09:29;16.40;28.40
3172;DHT22;1597;51.572;6.992;2022-07-17T02:11:56;16.40;28.90
3172;DHT22;1597;51.572;6.992;2022-07-17T02:14:22;16.40;29.80
3172;DHT22;1597;51.572;6.992;2022-07-17T02:16:48;16.50;28.80
3172;DHT22;1597;51.572;6.992;2022-07-17T02:19:14;16.40;27.90
3172;DHT22;1597;51.572;6.992;2022-07-17T02:21:40;16.50;29.40
3172;DHT22;1597;51.572;6.992;2022-07-17T02:24:06;16.40;29.00
3172;DHT22;1597;51.572;6.992;2022-07-17T02:26:34;16.40;28.60
3172;DHT22;1597;51.572;6.992;2022-07-17T02:29:00;16.50;28.30
3172;DHT22;1597;51.572;6.992;2022-07-17T02:31:26;16.40;27.50
3172;DHT22;1597;51.572;6.992;2022-07-17T02:33:52;16.50;26.10
3172;DHT22;1597;51.572;6.992;2022-07-17T02:36:18;16.50;26.40
3172;DHT22;1597;51.572;6.992;2022-07-17T02:38:44;16.50;25.00
3172;DHT22;1597;51.572;6.992;2022-07-17T02:41:10;16.40;30.40
3172;DHT22;1597;51.572;6.992;2022-07-17T02:43:36;16.40;30.00
3172;DHT22;1597;51.572;6.992;2022-07-17T02:46:05;16.40;32.00
3172;DHT22;1597;51.572;6.992;2022-07-17T02:48:31;16.40;30.50
3172;DHT22;1597;51.572;6.992;2022-07-17T02:50:57;16.40;28.70
3172;DHT22;1597;51.572;6.992;2022-07-17T02:53:22;16.40;27.80
3172;DHT22;1597;51.572;6.992;2022-07-17T02:55:48;16.40;29.50
3172;DHT22;1597;51.572;6.992;2022-07-17T02:58:14;16.40;30.30
3172;DHT22;1597;51.572;6.992;2022-07-17T03:00:40;16.40;30.00
3172;DHT22;1597;51.572;6.992;2022-07-17T03:03:06;16.40;30.70
3172;DHT22;1597;51.572;6.992;2022-07-17T03:05:31;16.40;30.00
3172;DHT22;1597;51.572;6.992;2022-07-17T03:07:57;16.30;30.40
3172;DHT22;1597;51.572;6.992;2022-07-17T03:10:23;16.30;28.30
3172;DHT22;1597;51.572;6.992;2022-07-17T03:12:49;16.40;28.80
3172;DHT22;1597;51.572;6.992;2022-07-17T03:15:14;16.40;28.70
3172;DHT22;1597;51.572;6.992;2022-07-17T03:17:41;16.30;31.10
3172;DHT22;1597;51.572;6.992;2022-07-17T03:20:08;16.30;28.50
3172;DHT22;1597;51.572;6.992;2022-07-17T03:22:34;16.30;28.30
3172;DHT22;1597;51.572;6.992;2022-07-17T03:25:00;16.30;30.40
3172;DHT22;1597;51.572;6.992;2022-07-17T03:27:26;16.20;29.60
3172;DHT22;1597;51.572;6.992;2022-07-17T03:29:53;16.20;32.10
3172;DHT22;1597;51.572;6.992;2022-07-17T03:32:19;16.30;30.90
3172;DHT22;1597;51.572;6.992;2022-07-17T03:34:45;16.20;27.90
3172;DHT22;1597;51.572;6.992;2022-07-17T03:37:11;16.20;30.50
3172;DHT22;1597;51.572;6.992;2022-07-17T03:39:36;16.10;33.60
3172;DHT22;1597;51.572;6.992;2022-07-17T03:42:02;16.10;34.80
3172;DHT22;1597;51.572;6.992;2022-07-17T03:44:28;16.10;30.20
3172;DHT22;1597;51.572;6.992;2022-07-17T03:46:54;16.10;36.00
3172;DHT22;1597;51.572;6.992;2022-07-17T03:49:20;16.10;35.60
3172;DHT22;1597;51.572;6.992;2022-07-17T03:51:46;16.00;36.50
3172;DHT22;1597;51.572;6.992;2022-07-17T03:54:12;16.00;39.70
3172;DHT22;1597;51.572;6.992;2022-07-17T03:56:38;16.00;38.10
3172;DHT22;1597;51.572;6.992;2022-07-17T03:59:04;15.90;43.60
3172;DHT22;1597;51.572;6.992;2022-07-17T04:01:30;15.90;42.50
3172;DHT22;1597;51.572;6.992;2022-07-17T04:03:56;15.90;42.90
3172;DHT22;1597;51.572;6.992;2022-07-17T04:06:21;16.00;43.30
3172;DHT22;1597;51.572;6.992;2022-07-17T04:08:47;16.00;38.90
3172;DHT22;1597;51.572;6.992;2022-07-17T04:11:13;16.00;37.50
3172;DHT22;1597;51.572;6.992;2022-07-17T04:13:39;16.00;38.80
3172;DHT22;1597;51.572;6.992;2022-07-17T04:16:05;16.00;40.70
3172;DHT22;1597;51.572;6.992;2022-07-17T04:18:34;16.00;41.50
3172;DHT22;1597;51.572;6.992;2022-07-17T04:21:11;15.90;46.80
3172;DHT22;1597;51.572;6.992;2022-07-17T04:23:38;15.90;44.70
3172;DHT22;1597;51.572;6.992;2022-07-17T04:26:05;15.90;45.30
3172;DHT22;1597;51.572;6.992;2022-07-17T04:28:34;15.90;46.50
3172;DHT22;1597;51.572;6.992;2022-07-17T04:31:01;15.80;47.80
3172;DHT22;1597;51.572;6.992;2022-07-17T04:33:27;15.90;49.50
3172;DHT22;1597;51.572;6.992;2022-07-17T04:35:53;15.90;46.30
3172;DHT22;1597;51.572;6.992;2022-07-17T04:38:18;15.90;47.50
3172;DHT22;1597;51.572;6.992;2022-07-17T04:40:44;15.90;47.50
3172;DHT22;1597;51.572;6.992;2022-07-17T04:43:11;15.80;46.80
3172;DHT22;1597;51.572;6.992;2022-07-17T04:45:37;15.80;50.40
3172;DHT22;1597;51.572;6.992;2022-07-17T04:48:03;15.80;51.70
3172;DHT22;1597;51.572;6.992;2022-07-17T04:50:29;15.80;52.50
3172;DHT22;1597;51.572;6.992;2022-07-17T04:52:55;15.90;53.50
3172;DHT22;1597;51.572;6.992;2022-07-17T04:55:22;15.90;53.30
3172;DHT22;1597;51.572;6.992;2022-07-17T04:57:48;15.90;52.60
3172;DHT22;1597;51.572;6.992;2022-07-17T05:00:14;15.90;50.00
3172;DHT22;1597;51.572;6.992;2022-07-17T05:02:41;15.90;50.60
3172;DHT22;1597;51.572;6.992;2022-07-17T05:05:07;16.00;52.40
3172;DHT22;1597;51.572;6.992;2022-07-17T05:07:33;16.00;49.30
3172;DHT22;1597;51.572;6.992;2022-07-17T05:09:59;16.10;46.20
3172;DHT22;1597;51.572;6.992;2022-07-17T05:12:25;16.10;44.70
3172;DHT22;1597;51.572;6.992;2022-07-17T05:14:51;16.10;43.80
3172;DHT22;1597;51.572;6.992;2022-07-17T05:17:16;16.10;47.30
3172;DHT22;1597;51.572;6.992;2022-07-17T05:19:42;16.20;47.90
3172;DHT22;1597;51.572;6.992;2022-07-17T05:22:08;16.20;45.30
3172;DHT22;1597;51.572;6.992;2022-07-17T05:24:34;16.20;45.00
3172;DHT22;1597;51.572;6.992;2022-07-17T05:27:00;16.30;42.50
3172;DHT22;1597;51.572;6.992;2022-07-17T05:29:26;16.40;37.20
3172;DHT22;1597;51.572;6.992;2022-07-17T05:31:52;16.40;34.70
3172;DHT22;1597;51.572;6.992;2022-07-17T05:34:18;16.40;33.80
3172;DHT22;1597;51.572;6.992;2022-07-17T05:36:44;16.40;35.10
3172;DHT22;1597;51.572;6.992;2022-07-17T05:39:11;16.40;33.50
3172;DHT22;1597;51.572;6.992;2022-07-17T05:41:37;16.40;36.40
3172;DHT22;1597;51.572;6.992;2022-07-17T05:44:03;16.40;38.00
3172;DHT22;1597;51.572;6.992;2022-07-17T05:46:30;16.50;38.20
3172;DHT22;1597;51.572;6.992;2022-07-17T05:48:56;16.50;37.80
3172;DHT22;1597;51.572;6.992;2022-07-17T05:51:21;16.50;38.00
3172;DHT22;1597;51.572;6.992;2022-07-17T05:53:47;16.50;36.00
3172;DHT22;1597;51.572;6.992;2022-07-17T05:56:13;16.50;38.00
3172;DHT22;1597;51.572;6.992;2022-07-17T05:58:39;16.60;35.90
3172;DHT22;1597;51.572;6.992;2022-07-17T06:01:05;16.60;36.40
3172;DHT22;1597;51.572;6.992;2022-07-17T06:03:30;16.70;35.60
3172;DHT22;1597;51.572;6.992;2022-07-17T06:05:56;16.90;32.10
3172;DHT22;1597;51.572;6.992;2022-07-17T06:08:22;16.90;23.50
3172;DHT22;1597;51.572;6.992;2022-07-17T06:10:48;17.00;23.60
3172;DHT22;1597;51.572;6.992;2022-07-17T06:13:14;17.00;21.20
3172;DHT22;1597;51.572;6.992;2022-07-17T06:15:39;17.10;19.80
3172;DHT22;1597;51.572;6.992;2022-07-17T06:18:05;17.10;19.50
3172;DHT22;1597;51.572;6.992;2022-07-17T06:20:31;17.20;16.00
3172;DHT22;1597;51.572;6.992;2022-07-17T06:22:57;17.20;16.60
3172;DHT22;1597;51.572;6.992;2022-07-17T06:25:24;17.30;14.70
3172;DHT22;1597;51.572;6.992;2022-07-17T06:27:50;17.30;13.10
3172;DHT22;1597;51.572;6.992;2022-07-17T06:30:17;17.30;15.60
3172;DHT22;1597;51.572;6.992;2022-07-17T06:32:44;17.30;13.80
3172;DHT22;1597;51.572;6.992;2022-07-17T06:35:11;17.30;12.60
3172;DHT22;1597;51.572;6.992;2022-07-17T06:37:38;17.40;12.50
3172;DHT22;1597;51.572;6.992;2022-07-17T06:40:05;17.40;9.80
3172;DHT22;1597;51.572;6.992;2022-07-17T06:42:31;17.40;13.30
3172;DHT22;1597;51.572;6.992;2022-07-17T06:44:57;17.40;14.80
3172;DHT22;1597;51.572;6.992;2022-07-17T06:47:23;17.50;13.50
3172;DHT22;1597;51.572;6.992;2022-07-17T06:49:48;17.60;13.20
3172;DHT22;1597;51.572;6.992;2022-07-17T06:52:14;17.60;10.80
3172;DHT22;1597;51.572;6.992;2022-07-17T06:54:40;17.70;11.30
3172;DHT22;1597;51.572;6.992;2022-07-17T06:57:06;17.70;9.80
3172;DHT22;1597;51.572;6.992;2022-07-17T06:59:33;17.80;9.80
3172;DHT22;1597;51.572;6.992;2022-07-17T07:01:59;17.90;9.80
3172;DHT22;1597;51.572;6.992;2022-07-17T07:04:25;17.90;8.10
3172;DHT22;1597;51.572;6.992;2022-07-17T07:06:51;17.90;8.60
3172;DHT22;1597;51.572;6.992;2022-07-17T07:09:16;18.00;7.50
3172;DHT22;1597;51.572;6.992;2022-07-17T07:11:43;18.10;6.50
3172;DHT22;1597;51.572;6.992;2022-07-17T07:14:09;18.10;4.90
3172;DHT22;1597;51.572;6.992;2022-07-17T07:16:35;18.20;4.10
3172;DHT22;1597;51.572;6.992;2022-07-17T07:19:01;18.30;2.50
3172;DHT22;1597;51.572;6.992;2022-07-17T07:21:27;18.30;2.30
3172;DHT22;1597;51.572;6.992;2022-07-17T07:23:54;18.30;4.30
3172;DHT22;1597;51.572;6.992;2022-07-17T07:26:21;18.30;3.70
3172;DHT22;1597;51.572;6.992;2022-07-17T07:28:47;18.40;3.20
3172;DHT22;1597;51.572;6.992;2022-07-17T07:31:13;18.50;1.80
3172;DHT22;1597;51.572;6.992;2022-07-17T07:33:39;18.60;1.00
3172;DHT22;1597;51.572;6.992;2022-07-17T07:36:05;18.60;1.00
3172;DHT22;1597;51.572;6.992;2022-07-17T07:38:31;18.70;1.00
3172;DHT22;1597;51.572;6.992;2022-07-17T07:40:57;18.70;1.00
3172;DHT22;1597;51.572;6.992;2022-07-17T07:43:24;18.70;1.00
3172;DHT22;1597;51.572;6.992;2022-07-17T07:45:50;18.80;1.00
3172;DHT22;1597;51.572;6.992;2022-07-17T07:48:17;18.90;1.00
3172;DHT22;1597;51.572;6.992;2022-07-17T07:50:43;18.90;1.00
3172;DHT22;1597;51.572;6.992;2022-07-17T07:53:10;19.00;1.00
3172;DHT22;1597;51.572;6.992;2022-07-17T07:55:36;19.00;1.00
3172;DHT22;1597;51.572;6.992;2022-07-17T07:58:11;19.00;1.00
3172;DHT22;1597;51.572;6.992;2022-07-17T08:00:39;19.00;1.00
3172;DHT22;1597;51.572;6.992;2022-07-17T08:03:06;19.10;1.00
3172;DHT22;1597;51.572;6.992;2022-07-17T08:05:32;19.20;1.00
3172;DHT22;1597;51.572;6.992;2022-07-17T08:07:58;19.30;1.00
3172;DHT22;1597;51.572;6.992;2022-07-17T08:10:25;19.30;1.00
3172;DHT22;1597;51.572;6.992;2022-07-17T08:12:51;19.30;1.00
3172;DHT22;1597;51.572;6.992;2022-07-17T08:15:19;19.30;1.00
3172;DHT22;1597;51.572;6.992;2022-07-17T08:17:47;19.30;1.00
3172;DHT22;1597;51.572;6.992;2022-07-17T08:20:15;19.50;1.00
3172;DHT22;1597;51.572;6.992;2022-07-17T08:22:42;19.40;1.00
3172;DHT22;1597;51.572;6.992;2022-07-17T08:25:10;19.40;1.00
3172;DHT22;1597;51.572;6.992;2022-07-17T08:27:37;19.50;1.00
3172;DHT22;1597;51.572;6.992;2022-07-17T08:30:06;19.60;1.00
3172;DHT22;1597;51.572;6.992;2022-07-17T08:32:34;19.80;1.00
3172;DHT22;1597;51.572;6.992;2022-07-17T08:35:00;19.90;1.00
3172;DHT22;1597;51.572;6.992;2022-07-17T08:37:25;20.00;1.00
3172;DHT22;1597;51.572;6.992;2022-07-17T08:39:52;20.00;1.00
3172;DHT22;1597;51.572;6.992;2022-07-17T08:42:18;20.00;1.00
3172;DHT22;1597;51.572;6.992;2022-07-17T08:44:46;20.00;1.00
3172;DHT22;1597;51.572;6.992;2022-07-17T08:47:13;20.00;1.00
3172;DHT22;1597;51.572;6.992;2022-07-17T08:49:48;20.00;1.00
3172;DHT22;1597;51.572;6.992;2022-07-17T08:52:14;20.10;1.00
3172;DHT22;1597;51.572;6.992;2022-07-17T08:54:42;20.20;1.00
3172;DHT22;1597;51.572;6.992;2022-07-17T08:57:08;20.30;1.00
3172;DHT22;1597;51.572;6.992;2022-07-17T08:59:37;20.30;1.00
3172;DHT22;1597;51.572;6.992;2022-07-17T09:02:04;20.30;1.00
3172;DHT22;1597;51.572;6.992;2022-07-17T09:04:31;20.40;1.00
3172;DHT22;1597;51.572;6.992;2022-07-17T09:07:01;20.40;1.00
3172;DHT22;1597;51.572;6.992;2022-07-17T09:09:28;20.50;1.00
3172;DHT22;1597;51.572;6.992;2022-07-17T09:11:56;20.50;1.00
3172;DHT22;1597;51.572;6.992;2022-07-17T09:14:24;20.50;1.00
3172;DHT22;1597;51.572;6.992;2022-07-17T09:16:53;20.50;1.00
3172;DHT22;1597;51.572;6.992;2022-07-17T09:22:08;20.50;1.00
3172;DHT22;1597;51.572;6.992;2022-07-17T09:24:48;20.50;1.00
3172;DHT22;1597;51.572;6.992;2022-07-17T09:27:32;20.60;1.00
3172;DHT22;1597;51.572;6.992;2022-07-17T09:30:06;20.70;1.00
3172;DHT22;1597;51.572;6.992;2022-07-17T09:32:41;20.70;1.00
3172;DHT22;1597;51.572;6.992;2022-07-17T09:35:09;20.70;1.00
3172;DHT22;1597;51.572;6.992;2022-07-17T09:37:37;20.70;1.00
3172;DHT22;1597;51.572;6.992;2022-07-17T09:40:11;20.80;1.00
3172;DHT22;1597;51.572;6.992;2022-07-17T09:43:01;20.80;1.00
3172;DHT22;1597;51.572;6.992;2022-07-17T09:45:28;20.80;1.00
3172;DHT22;1597;51.572;6.992;2022-07-17T09:47:55;20.80;1.00
3172;DHT22;1597;51.572;6.992;2022-07-17T09:50:22;20.80;1.00
3172;DHT22;1597;51.572;6.992;2022-07-17T09:52:49;20.90;1.00
3172;DHT22;1597;51.572;6.992;2022-07-17T09:55:20;21.00;1.00
3172;DHT22;1597;51.572;6.992;2022-07-17T09:58:11;21.10;1.00
3172;DHT22;1597;51.572;6.992;2022-07-17T10:00:37;21.20;1.00
3172;DHT22;1597;51.572;6.992;2022-07-17T10:03:04;21.10;1.00
3172;DHT22;1597;51.572;6.992;2022-07-17T10:05:31;21.20;1.00
3172;DHT22;1597;51.572;6.992;2022-07-17T10:07:57;21.30;1.00
3172;DHT22;1597;51.572;6.992;2022-07-17T10:10:23;21.40;1.00
3172;DHT22;1597;51.572;6.992;2022-07-17T10:12:50;21.50;1.00
3172;DHT22;1597;51.572;6.992;2022-07-17T10:15:17;21.60;1.00
3172;DHT22;1597;51.572;6.992;2022-07-17T10:17:43;21.70;1.00
3172;DHT22;1597;51.572;6.992;2022-07-17T10:20:09;21.80;1.00
3172;DHT22;1597;51.572;6.992;2022-07-17T10:22:46;21.80;1.00
3172;DHT22;1597;51.572;6.992;2022-07-17T10:25:16;21.80;1.00
3172;DHT22;1597;51.572;6.992;2022-07-17T10:27:52;21.80;1.00
3172;DHT22;1597;51.572;6.992;2022-07-17T10:30:27;21.90;1.00
3172;DHT22;1597;51.572;6.992;2022-07-17T10:32:57;21.90;1.00
3172;DHT22;1597;51.572;6.992;2022-07-17T10:35:25;22.00;1.00
3172;DHT22;1597;51.572;6.992;2022-07-17T10:37:56;22.00;1.00
3172;DHT22;1597;51.572;6.992;2022-07-17T10:40:25;22.00;1.00
3172;DHT22;1597;51.572;6.992;2022-07-17T10:43:00;22.00;1.00
3172;DHT22;1597;51.572;6.992;2022-07-17T10:45:41;22.00;1.00
3172;DHT22;1597;51.572;6.992;2022-07-17T10:48:13;22.10;1.00
3172;DHT22;1597;51.572;6.992;2022-07-17T10:50:49;22.10;1.00
3172;DHT22;1597;51.572;6.992;2022-07-17T10:53:28;22.10;1.00
3172;DHT22;1597;51.572;6.992;2022-07-17T10:55:57;22.20;1.00
3172;DHT22;1597;51.572;6.992;2022-07-17T10:58:37;22.20;1.00
3172;DHT22;1597;51.572;6.992;2022-07-17T11:01:13;22.20;1.00
3172;DHT22;1597;51.572;6.992;2022-07-17T11:03:46;22.20;1.00
3172;DHT22;1597;51.572;6.992;2022-07-17T11:06:30;22.20;1.00
3172;DHT22;1597;51.572;6.992;2022-07-17T11:09:10;22.30;1.00
3172;DHT22;1597;51.572;6.992;2022-07-17T11:11:49;22.40;1.00
3172;DHT22;1597;51.572;6.992;2022-07-17T11:14:24;22.50;1.00
3172;DHT22;1597;51.572;6.992;2022-07-17T11:17:02;22.80;1.00
3172;DHT22;1597;51.572;6.992;2022-07-17T11:19:31;22.90;1.00
3172;DHT22;1597;51.572;6.992;2022-07-17T11:22:01;22.90;1.00
3172;DHT22;1597;51.572;6.992;2022-07-17T11:24:41;23.00;1.00
3172;DHT22;1597;51.572;6.992;2022-07-17T11:27:12;23.00;1.00
3172;DHT22;1597;51.572;6.992;2022-07-17T11:29:43;23.00;1.00
3172;DHT22;1597;51.572;6.992;2022-07-17T11:32:09;22.90;1.00
3172;DHT22;1597;51.572;6.992;2022-07-17T11:34:35;22.90;1.00
3172;DHT22;1597;51.572;6.992;2022-07-17T11:37:03;23.00;1.00
3172;DHT22;1597;51.572;6.992;2022-07-17T11:39:45;23.00;1.00
3172;DHT22;1597;51.572;6.992;2022-07-17T11:42:23;23.10;1.00
3172;DHT22;1597;51.572;6.992;2022-07-17T11:44:53;23.20;1.00
3172;DHT22;1597;51.572;6.992;2022-07-17T11:47:25;23.20;1.00
3172;DHT22;1597;51.572;6.992;2022-07-17T11:50:03;23.30;1.00
3172;DHT22;1597;51.572;6.992;2022-07-17T11:55:16;23.40;1.00
3172;DHT22;1597;51.572;6.992;2022-07-17T11:57:46;23.40;1.00
3172;DHT22;1597;51.572;6.992;2022-07-17T12:00:19;23.40;1.00
3172;DHT22;1597;51.572;6.992;2022-07-17T12:02:45;23.50;1.00
3172;DHT22;1597;51.572;6.992;2022-07-17T12:05:12;23.50;1.00
3172;DHT22;1597;51.572;6.992;2022-07-17T12:07:45;23.50;1.00
3172;DHT22;1597;51.572;6.992;2022-07-17T12:10:16;23.50;1.00
3172;DHT22;1597;51.572;6.992;2022-07-17T12:12:55;23.60;1.00
3172;DHT22;1597;51.572;6.992;2022-07-17T12:15:42;23.70;1.00
3172;DHT22;1597;51.572;6.992;2022-07-17T12:18:25;23.70;1.00
3172;DHT22;1597;51.572;6.992;2022-07-17T12:20:57;23.80;1.00
3172;DHT22;1597;51.572;6.992;2022-07-17T12:23:34;23.90;1.00
3172;DHT22;1597;51.572;6.992;2022-07-17T12:26:06;24.10;1.00
3172;DHT22;1597;51.572;6.992;2022-07-17T12:28:34;24.10;1.00
3172;DHT22;1597;51.572;6.992;2022-07-17T12:31:00;24.10;1.00
3172;DHT22;1597;51.572;6.992;2022-07-17T12:33:26;24.10;1.00
3172;DHT22;1597;51.572;6.992;2022-07-17T12:35:52;24.10;1.00
3172;DHT22;1597;51.572;6.992;2022-07-17T12:38:18;24.20;1.00
3172;DHT22;1597;51.572;6.992;2022-07-17T12:40:45;24.30;1.00
3172;DHT22;1597;51.572;6.992;2022-07-17T12:43:11;24.30;1.00
3172;DHT22;1597;51.572;6.992;2022-07-17T12:45:37;24.40;1.00
3172;DHT22;1597;51.572;6.992;2022-07-17T12:48:03;24.40;1.00
3172;DHT22;1597;51.572;6.992;2022-07-17T12:50:29;24.50;1.00
3172;DHT22;1597;51.572;6.992;2022-07-17T12:52:55;24.60;1.00
3172;DHT22;1597;51.572;6.992;2022-07-17T12:55:21;24.60;1.00
3172;DHT22;1597;51.572;6.992;2022-07-17T12:57:47;24.60;1.00
3172;DHT22;1597;51.572;6.992;2022-07-17T13:00:13;24.60;1.00
3172;DHT22;1597;51.572;6.992;2022-07-17T13:02:40;24.60;1.00
3172;DHT22;1597;51.572;6.992;2022-07-17T13:05:06;24.60;1.00
3172;DHT22;1597;51.572;6.992;2022-07-17T13:07:33;24.60;1.00
3172;DHT22;1597;51.572;6.992;2022-07-17T13:09:59;24.70;1.00
3172;DHT22;1597;51.572;6.992;2022-07-17T13:12:25;24.80;1.00
3172;DHT22;1597;51.572;6.992;2022-07-17T13:14:50;24.80;1.00
3172;DHT22;1597;51.572;6.992;2022-07-17T13:17:16;24.90;1.00
3172;DHT22;1597;51.572;6.992;2022-07-17T13:19:42;25.10;1.00
3172;DHT22;1597;51.572;6.992;2022-07-17T13:22:08;25.10;1.00
3172;DHT22;1597;51.572;6.992;2022-07-17T13:24:34;25.20;1.00
3172;DHT22;1597;51.572;6.992;2022-07-17T13:27:00;25.30;1.00
3172;DHT22;1597;51.572;6.992;2022-07-17T13:29:26;25.30;1.00
3172;DHT22;1597;51.572;6.992;2022-07-17T13:31:53;25.30;1.00
3172;DHT22;1597;51.572;6.992;2022-07-17T13:34:19;25.30;1.00
3172;DHT22;1597;51.572;6.992;2022-07-17T13:36:45;25.40;1.00
3172;DHT22;1597;51.572;6.992;2022-07-17T13:39:11;25.60;1.00
3172;DHT22;1597;51.572;6.992;2022-07-17T13:41:37;25.60;1.00
3172;DHT22;1597;51.572;6.992;2022-07-17T13:44:05;25.60;1.00
3172;DHT22;1597;51.572;6.992;2022-07-17T13:46:32;25.70;1.00
3172;DHT22;1597;51.572;6.992;2022-07-17T13:49:00;25.70;1.00
3172;DHT22;1597;51.572;6.992;2022-07-17T13:51:26;25.70;1.00
3172;DHT22;1597;51.572;6.992;2022-07-17T13:53:53;25.70;1.00
3172;DHT22;1597;51.572;6.992;2022-07-17T13:56:20;25.70;1.00
3172;DHT22;1597;51.572;6.992;2022-07-17T13:58:48;25.80;1.00
3172;DHT22;1597;51.572;6.992;2022-07-17T14:01:16;25.80;1.00
3172;DHT22;1597;51.572;6.992;2022-07-17T14:03:42;25.60;1.00
3172;DHT22;1597;51.572;6.992;2022-07-17T14:06:07;25.80;1.00
3172;DHT22;1597;51.572;6.992;2022-07-17T14:08:34;25.80;1.00
3172;DHT22;1597;51.572;6.992;2022-07-17T14:11:01;25.70;1.00
3172;DHT22;1597;51.572;6.992;2022-07-17T14:13:28;25.60;1.00
3172;DHT22;1597;51.572;6.992;2022-07-17T14:15:54;25.70;1.00
3172;DHT22;1597;51.572;6.992;2022-07-17T14:18:20;25.70;1.00
3172;DHT22;1597;51.572;6.992;2022-07-17T14:20:46;25.70;1.00
3172;DHT22;1597;51.572;6.992;2022-07-17T14:23:12;25.60;1.00
3172;DHT22;1597;51.572;6.992;2022-07-17T14:25:38;25.60;1.00
3172;DHT22;1597;51.572;6.992;2022-07-17T14:28:04;25.60;1.00
3172;DHT22;1597;51.572;6.992;2022-07-17T14:30:30;25.70;1.00
3172;DHT22;1597;51.572;6.992;2022-07-17T14:32:57;25.80;1.00
3172;DHT22;1597;51.572;6.992;2022-07-17T14:35:23;25.90;1.00
3172;DHT22;1597;51.572;6.992;2022-07-17T14:37:49;26.00;1.00
3172;DHT22;1597;51.572;6.992;2022-07-17T14:40:15;26.00;1.00
3172;DHT22;1597;51.572;6.992;2022-07-17T14:42:41;26.10;1.00
3172;DHT22;1597;51.572;6.992;2022-07-17T14:45:09;26.10;1.00
3172;DHT22;1597;51.572;6.992;2022-07-17T14:47:35;26.10;1.00
3172;DHT22;1597;51.572;6.992;2022-07-17T14:50:02;26.10;1.00
3172;DHT22;1597;51.572;6.992;2022-07-17T14:52:28;26.20;1.00
3172;DHT22;1597;51.572;6.992;2022-07-17T14:54:54;26.20;1.00
3172;DHT22;1597;51.572;6.992;2022-07-17T14:57:20;26.10;1.00
3172;DHT22;1597;51.572;6.992;2022-07-17T14:59:45;26.00;1.00
3172;DHT22;1597;51.572;6.992;2022-07-17T15:02:11;25.90;1.00
3172;DHT22;1597;51.572;6.992;2022-07-17T15:04:37;25.90;1.00
3172;DHT22;1597;51.572;6.992;2022-07-17T15:07:04;25.90;1.00
3172;DHT22;1597;51.572;6.992;2022-07-17T15:09:30;26.00;1.00
3172;DHT22;1597;51.572;6.992;2022-07-17T15:11:56;25.90;1.00
3172;DHT22;1597;51.572;6.992;2022-07-17T15:14:22;25.80;1.00
3172;DHT22;1597;51.572;6.992;2022-07-17T15:16:51;25.80;1.00
3172;DHT22;1597;51.572;6.992;2022-07-17T15:19:20;25.80;1.00
3172;DHT22;1597;51.572;6.992;2022-07-17T15:21:45;25.90;1.00
3172;DHT22;1597;51.572;6.992;2022-07-17T15:24:11;25.90;1.00
3172;DHT22;1597;51.572;6.992;2022-07-17T15:26:37;26.00;1.00
3172;DHT22;1597;51.572;6.992;2022-07-17T15:29:03;25.90;1.00
3172;DHT22;1597;51.572;6.992;2022-07-17T15:31:28;26.00;1.00
3172;DHT22;1597;51.572;6.992;2022-07-17T15:33:54;25.90;1.00
3172;DHT22;1597;51.572;6.992;2022-07-17T15:36:20;25.90;1.00
3172;DHT22;1597;51.572;6.992;2022-07-17T15:38:57;25.80;1.00
3172;DHT22;1597;51.572;6.992;2022-07-17T15:41:25;25.80;1.00
3172;DHT22;1597;51.572;6.992;2022-07-17T15:43:52;25.80;1.00
3172;DHT22;1597;51.572;6.992;2022-07-17T15:46:18;25.80;1.00
3172;DHT22;1597;51.572;6.992;2022-07-17T15:48:45;25.80;1.00
3172;DHT22;1597;51.572;6.992;2022-07-17T15:51:11;25.80;1.00
3172;DHT22;1597;51.572;6.992;2022-07-17T15:53:37;25.90;1.00
3172;DHT22;1597;51.572;6.992;2022-07-17T15:56:04;25.90;1.00
3172;DHT22;1597;51.572;6.992;2022-07-17T15:58:29;26.00;1.00
3172;DHT22;1597;51.572;6.992;2022-07-17T16:00:56;26.00;1.00
3172;DHT22;1597;51.572;6.992;2022-07-17T16:03:22;26.00;1.00
3172;DHT22;1597;51.572;6.992;2022-07-17T16:05:48;26.10;1.00
3172;DHT22;1597;51.572;6.992;2022-07-17T16:08:13;26.10;1.00
3172;DHT22;1597;51.572;6.992;2022-07-17T16:10:39;26.10;1.00
3172;DHT22;1597;51.572;6.992;2022-07-17T16:13:05;26.20;1.00
3172;DHT22;1597;51.572;6.992;2022-07-17T16:15:31;26.10;1.00
3172;DHT22;1597;51.572;6.992;2022-07-17T16:17:57;26.10;1.00
3172;DHT22;1597;51.572;6.992;2022-07-17T16:20:23;26.20;1.00